createdAt,value
2018-09-03T00:00:40.020Z,8.47
2018-09-03T00:03:07.606Z,8.87
2018-09-03T00:05:35.197Z,9.00
2018-09-03T00:08:02.804Z,8.40
2018-09-03T00:10:30.419Z,9.13
2018-09-03T00:12:58.012Z,8.67
2018-09-03T00:15:25.620Z,8.97
2018-09-03T00:17:53.194Z,8.77
2018-09-03T00:20:20.787Z,8.67
2018-09-03T00:22:48.388Z,8.00
2018-09-03T00:25:15.982Z,8.83
2018-09-03T00:27:43.599Z,8.40
2018-09-03T00:30:11.163Z,8.10
2018-09-03T00:32:43.978Z,8.50
2018-09-03T00:35:16.975Z,9.60
2018-09-03T00:37:49.809Z,8.90
2018-09-03T00:41:22.572Z,9.80
2018-09-03T00:43:55.458Z,9.20
2018-09-03T00:46:28.278Z,9.37
2018-09-03T00:48:55.905Z,9.30
2018-09-03T00:51:23.507Z,10.03
2018-09-03T00:53:51.098Z,10.40
2018-09-03T00:56:18.713Z,9.13
2018-09-03T00:58:46.353Z,10.27
2018-09-03T01:01:13.945Z,9.00
2018-09-03T01:03:41.541Z,10.07
2018-09-03T01:06:09.168Z,10.00
2018-09-03T01:08:36.753Z,10.13
2018-09-03T01:11:04.377Z,9.93
2018-09-03T01:13:31.937Z,10.57
2018-09-03T01:15:59.558Z,9.93
2018-09-03T01:18:27.186Z,9.30
2018-09-03T01:20:54.769Z,9.97
2018-09-03T01:23:22.370Z,9.90
2018-09-03T01:25:49.982Z,9.80
2018-09-03T01:28:17.565Z,9.67
2018-09-03T01:30:45.168Z,9.10
2018-09-03T01:33:12.739Z,9.43
2018-09-03T01:35:40.325Z,10.20
2018-09-03T01:38:07.963Z,10.67
2018-09-03T01:40:35.565Z,10.00
2018-09-03T01:43:03.155Z,10.70
2018-09-03T01:45:30.779Z,10.47
2018-09-03T01:47:58.459Z,10.47
2018-09-03T01:50:26.060Z,9.83
2018-09-03T01:52:53.690Z,10.00
2018-09-03T01:55:21.249Z,9.20
2018-09-03T01:57:48.878Z,10.27
2018-09-03T02:00:16.489Z,10.87
2018-09-03T02:02:44.075Z,10.07
2018-09-03T02:05:11.671Z,9.97
2018-09-03T02:07:39.304Z,10.47
2018-09-03T02:10:06.900Z,10.70
2018-09-03T02:12:34.508Z,10.83
2018-09-03T02:15:02.125Z,10.60
2018-09-03T02:17:29.793Z,11.07
2018-09-03T02:19:57.399Z,10.80
2018-09-03T02:22:24.974Z,11.37
2018-09-03T02:24:52.616Z,9.83
2018-09-03T02:27:20.249Z,10.50
2018-09-03T02:29:47.840Z,10.53
2018-09-03T02:32:15.455Z,10.63
2018-09-03T02:34:43.039Z,11.13
2018-09-03T02:37:10.686Z,10.73
2018-09-03T02:39:38.296Z,10.97
2018-09-03T02:42:05.887Z,10.20
2018-09-03T02:44:33.495Z,11.93
2018-09-03T02:47:01.273Z,12.17
2018-09-03T02:49:28.860Z,12.80
2018-09-03T02:51:56.519Z,11.90
2018-09-03T02:54:24.118Z,13.83
2018-09-03T02:56:51.730Z,13.10
2018-09-03T02:59:19.360Z,12.53
2018-09-03T03:01:47.017Z,13.10
2018-09-03T03:04:14.648Z,12.40
2018-09-03T03:06:42.276Z,12.80
2018-09-03T03:09:09.934Z,14.33
2018-09-03T03:11:38.440Z,12.90
2018-09-03T03:14:06.071Z,14.73
2018-09-03T03:16:33.663Z,13.90
2018-09-03T03:19:01.272Z,14.20
2018-09-03T03:21:28.889Z,13.33
2018-09-03T03:23:56.550Z,14.07
2018-09-03T03:26:24.143Z,13.93
2018-09-03T03:28:51.740Z,14.37
2018-09-03T03:31:19.336Z,13.93
2018-09-03T03:33:46.943Z,13.80
2018-09-03T03:36:14.536Z,14.50
2018-09-03T03:38:42.164Z,14.07
2018-09-03T03:41:09.762Z,13.03
2018-09-03T03:43:37.366Z,14.60
2018-09-03T03:46:04.964Z,15.17
2018-09-03T03:48:32.560Z,14.30
2018-09-03T03:51:00.177Z,16.20
2018-09-03T03:53:27.787Z,16.43
2018-09-03T03:55:55.381Z,14.37
2018-09-03T03:58:23.029Z,14.70
2018-09-03T04:00:50.653Z,14.87
2018-09-03T04:03:18.253Z,16.07
2018-09-03T04:05:45.838Z,15.50
2018-09-03T04:08:13.428Z,14.23
2018-09-03T04:10:41.060Z,15.17
2018-09-03T04:13:08.637Z,14.90
2018-09-03T04:15:36.632Z,13.53
2018-09-03T04:18:04.547Z,14.63
2018-09-03T04:20:32.165Z,14.20
2018-09-03T04:22:59.794Z,16.37
2018-09-03T04:25:27.377Z,15.13
2018-09-03T04:27:55.686Z,15.57
2018-09-03T04:30:23.337Z,16.07
2018-09-03T04:32:50.934Z,15.40
2018-09-03T04:35:18.541Z,16.00
2018-09-03T04:37:46.257Z,15.97
2018-09-03T04:40:14.178Z,14.87
2018-09-03T04:42:41.788Z,14.67
2018-09-03T04:45:09.385Z,14.10
2018-09-03T04:47:36.970Z,15.70
2018-09-03T04:50:04.596Z,16.03
2018-09-03T04:52:32.260Z,14.63
2018-09-03T04:54:59.881Z,15.83
2018-09-03T04:57:27.570Z,14.60
2018-09-03T04:59:55.204Z,13.80
2018-09-03T05:02:22.844Z,14.93
2018-09-03T05:04:50.442Z,16.17
2018-09-03T05:07:18.113Z,15.20
2018-09-03T05:09:45.723Z,15.40
2018-09-03T05:12:13.353Z,15.70
2018-09-03T05:14:40.951Z,15.90
2018-09-03T05:17:08.544Z,16.47
2018-09-03T05:19:36.149Z,16.80
2018-09-03T05:22:03.914Z,16.13
2018-09-03T05:24:31.752Z,16.97
2018-09-03T05:26:59.767Z,15.63
2018-09-03T05:29:27.663Z,15.63
2018-09-03T05:31:55.551Z,16.20
2018-09-03T05:34:23.401Z,15.93
2018-09-03T05:36:51.273Z,16.70
2018-09-03T05:39:19.165Z,16.63
2018-09-03T05:41:47.025Z,16.60
2018-09-03T05:44:14.898Z,17.47
2018-09-03T05:46:42.742Z,16.73
2018-09-03T05:49:10.614Z,18.30
2018-09-03T05:51:38.376Z,17.20
2018-09-03T05:54:06.188Z,17.27
2018-09-03T05:56:34.001Z,16.43
2018-09-03T05:59:01.898Z,15.93
2018-09-03T06:01:29.740Z,17.27
2018-09-03T06:03:57.632Z,16.80
2018-09-03T06:06:25.484Z,16.03
2018-09-03T06:08:53.362Z,17.43
2018-09-03T06:11:21.213Z,20.30
2018-09-03T06:13:49.098Z,16.77
2018-09-03T06:16:17.018Z,16.03
2018-09-03T06:18:44.562Z,16.13
2018-09-03T06:21:13.016Z,16.60
2018-09-03T06:23:40.592Z,16.93
2018-09-03T06:26:08.160Z,18.90
2018-09-03T06:28:35.744Z,17.40
2018-09-03T06:31:03.585Z,17.23
2018-09-03T06:33:31.169Z,17.00
2018-09-03T06:35:58.823Z,18.73
2018-09-03T06:38:26.366Z,16.23
2018-09-03T06:40:54.522Z,14.77
2018-09-03T06:43:22.109Z,14.13
2018-09-03T06:45:49.730Z,17.03
2018-09-03T06:48:17.296Z,15.17
2018-09-03T06:50:44.855Z,15.20
2018-09-03T06:53:12.441Z,15.37
2018-09-03T06:55:40.007Z,14.87
2018-09-03T06:58:07.810Z,16.47
2018-09-03T07:00:35.440Z,16.17
2018-09-03T07:03:03.068Z,14.47
2018-09-03T07:05:30.724Z,15.27
2018-09-03T07:07:58.317Z,15.33
2018-09-03T07:10:25.876Z,15.33
2018-09-03T07:12:53.477Z,15.43
2018-09-03T07:15:21.052Z,14.47
2018-09-03T07:17:48.635Z,14.47
2018-09-03T07:20:16.191Z,13.20
2018-09-03T07:22:43.759Z,14.63
2018-09-03T07:25:11.337Z,14.67
2018-09-03T07:27:39.236Z,13.33
2018-09-03T07:30:06.899Z,13.37
2018-09-03T07:32:34.472Z,13.00
2018-09-03T07:35:02.167Z,13.33
2018-09-03T07:37:29.761Z,12.57
2018-09-03T07:39:57.371Z,12.87
2018-09-03T07:42:24.945Z,13.20
2018-09-03T07:44:52.566Z,11.87
2018-09-03T07:47:20.121Z,11.90
2018-09-03T07:49:47.698Z,11.37
2018-09-03T07:52:15.256Z,13.07
2018-09-03T07:54:42.820Z,12.63
2018-09-03T07:57:10.412Z,11.73
2018-09-03T07:59:37.966Z,12.43
2018-09-03T08:02:05.623Z,11.90
2018-09-03T08:04:33.189Z,11.20
2018-09-03T08:07:00.892Z,10.70
2018-09-03T08:09:28.467Z,10.60
2018-09-03T08:11:56.047Z,13.30
2018-09-03T08:14:23.617Z,10.50
2018-09-03T08:16:51.205Z,10.20
2018-09-03T08:19:18.789Z,11.40
2018-09-03T08:21:46.391Z,11.37
2018-09-03T08:24:13.943Z,11.40
2018-09-03T08:26:41.505Z,11.17
2018-09-03T08:29:09.076Z,10.97
2018-09-03T08:31:36.670Z,10.20
2018-09-03T08:34:04.246Z,10.83
2018-09-03T08:36:31.832Z,11.73
2018-09-03T08:38:59.385Z,9.77
2018-09-03T08:41:26.978Z,10.57
2018-09-03T08:43:54.544Z,8.93
2018-09-03T08:46:22.100Z,9.60
2018-09-03T08:48:49.670Z,10.03
2018-09-03T08:51:17.224Z,9.97
2018-09-03T08:53:44.860Z,10.67
2018-09-03T08:56:12.494Z,9.43
2018-09-03T08:58:40.124Z,9.67
2018-09-03T09:01:07.719Z,9.40
2018-09-03T09:03:42.562Z,9.17
2018-09-03T09:06:10.677Z,8.20
2018-09-03T09:08:38.247Z,8.27
2018-09-03T09:11:06.465Z,7.57
2018-09-03T09:13:34.072Z,8.40
2018-09-03T09:16:01.689Z,8.47
2018-09-03T09:18:29.256Z,8.17
2018-09-03T09:20:56.836Z,7.87
2018-09-03T09:23:24.408Z,8.17
2018-09-03T09:25:52.025Z,8.70
2018-09-03T09:28:19.611Z,7.73
2018-09-03T09:30:47.172Z,7.47
2018-09-03T09:33:14.732Z,6.43
2018-09-03T09:35:42.374Z,6.90
2018-09-03T09:38:09.991Z,6.93
2018-09-03T09:40:37.916Z,8.30
2018-09-03T09:43:05.684Z,7.40
2018-09-03T09:45:33.300Z,7.47
2018-09-03T09:48:00.947Z,7.60
2018-09-03T09:50:28.525Z,8.60
2018-09-03T09:52:56.160Z,8.33
2018-09-03T09:55:23.747Z,9.30
2018-09-03T09:57:51.349Z,47.87
2018-09-03T10:00:24.081Z,30.30
2018-09-03T10:02:51.693Z,11.93
2018-09-03T10:05:19.340Z,7.73
2018-09-03T10:07:47.212Z,7.70
2018-09-03T10:10:14.846Z,7.07
2018-09-03T10:12:42.451Z,7.23
2018-09-03T10:15:10.017Z,6.97
2018-09-03T10:17:37.613Z,7.03
2018-09-03T10:20:05.578Z,7.63
2018-09-03T10:22:33.179Z,7.40
2018-09-03T10:25:00.781Z,7.40
2018-09-03T10:27:28.338Z,7.00
2018-09-03T10:29:55.924Z,7.53
2018-09-03T10:32:24.264Z,6.40
2018-09-03T10:34:51.877Z,7.30
2018-09-03T10:37:32.196Z,6.53
2018-09-03T10:40:00.575Z,7.80
2018-09-03T10:42:28.733Z,6.70
2018-09-03T10:44:56.386Z,7.00
2018-09-03T10:47:24.310Z,6.93
2018-09-03T10:49:52.056Z,6.93
2018-09-03T10:52:19.607Z,6.50
2018-09-03T10:54:47.272Z,6.77
2018-09-03T10:57:14.944Z,5.87
2018-09-03T10:59:42.681Z,7.93
2018-09-03T11:02:10.304Z,6.40
2018-09-03T11:04:37.941Z,7.57
2018-09-03T11:07:05.617Z,6.70
2018-09-03T11:09:33.190Z,7.37
2018-09-03T11:12:00.903Z,7.33
2018-09-03T11:14:28.623Z,7.17
2018-09-03T11:16:56.268Z,7.20
2018-09-03T11:19:26.671Z,7.43
2018-09-03T11:21:54.271Z,8.00
2018-09-03T11:24:22.207Z,7.40
2018-09-03T11:26:49.967Z,7.50
2018-09-03T11:29:17.548Z,7.93
2018-09-03T11:31:45.194Z,7.50
2018-09-03T11:34:13.109Z,7.20
2018-09-03T11:36:40.679Z,8.07
2018-09-03T11:39:09.367Z,8.13
2018-09-03T11:41:36.996Z,6.83
2018-09-03T11:44:05.351Z,7.60
2018-09-03T11:46:32.994Z,7.73
2018-09-03T11:49:00.588Z,7.20
2018-09-03T11:51:28.164Z,7.17
2018-09-03T11:53:55.841Z,7.60
2018-09-03T11:56:24.394Z,7.50
2018-09-03T11:58:53.075Z,7.97
2018-09-03T12:01:20.813Z,7.87
2018-09-03T12:03:48.447Z,7.33
2018-09-03T12:06:16.045Z,7.20
2018-09-03T12:08:43.744Z,7.17
2018-09-03T12:11:11.312Z,7.60
2018-09-03T12:13:38.924Z,7.47
2018-09-03T12:16:09.935Z,7.73
2018-09-03T12:18:37.954Z,7.40
2018-09-03T12:21:05.731Z,8.03
2018-09-03T12:23:34.014Z,8.07
2018-09-03T12:26:02.321Z,6.90
2018-09-03T12:28:29.912Z,7.67
2018-09-03T12:30:57.513Z,6.77
2018-09-03T12:33:25.133Z,7.10
2018-09-03T12:35:52.749Z,6.60
2018-09-03T12:38:20.368Z,6.77
2018-09-03T12:40:48.121Z,6.70
2018-09-03T12:43:15.770Z,6.27
2018-09-03T12:45:48.548Z,7.40
2018-09-03T12:48:25.597Z,7.03
2018-09-03T12:50:53.257Z,6.63
2018-09-03T12:53:20.871Z,8.40
2018-09-03T12:55:48.508Z,6.93
2018-09-03T12:58:16.096Z,7.00
2018-09-03T13:00:43.742Z,7.77
2018-09-03T13:03:11.425Z,7.33
2018-09-03T13:05:39.089Z,7.50
2018-09-03T13:08:06.872Z,7.40
2018-09-03T13:10:34.485Z,7.60
2018-09-03T13:13:02.150Z,7.70
2018-09-03T13:15:29.712Z,7.47
2018-09-03T13:17:57.327Z,8.00
2018-09-03T13:20:24.941Z,7.73
2018-09-03T13:22:52.575Z,8.33
2018-09-03T13:25:20.148Z,7.47
2018-09-03T13:27:47.781Z,7.63
2018-09-03T13:30:15.414Z,7.30
2018-09-03T13:32:43.010Z,7.13
2018-09-03T13:35:10.603Z,8.03
2018-09-03T13:37:38.150Z,7.17
2018-09-03T13:40:05.797Z,7.13
2018-09-03T13:42:33.387Z,7.60
2018-09-03T13:45:00.994Z,7.50
2018-09-03T13:47:28.641Z,7.30
2018-09-03T13:50:19.926Z,7.83
2018-09-03T13:52:47.626Z,7.93
2018-09-03T13:55:15.206Z,7.53
2018-09-03T13:57:42.775Z,7.80
2018-09-03T14:00:10.820Z,7.90
2018-09-03T14:02:38.409Z,7.93
2018-09-03T14:05:06.303Z,7.67
2018-09-03T14:07:33.922Z,7.40
2018-09-03T14:10:01.649Z,8.07
2018-09-03T14:12:29.262Z,7.70
2018-09-03T14:14:56.849Z,8.20
2018-09-03T14:17:24.549Z,7.70
2018-09-03T14:19:52.185Z,8.30
2018-09-03T14:22:21.345Z,8.20
2018-09-03T14:24:48.936Z,8.40
2018-09-03T14:27:16.493Z,7.87
2018-09-03T14:29:44.093Z,8.23
2018-09-03T14:32:11.662Z,7.27
2018-09-03T14:34:39.232Z,7.30
2018-09-03T14:37:07.107Z,7.10
2018-09-03T14:39:34.676Z,7.20
2018-09-03T14:42:02.300Z,7.33
2018-09-03T14:44:29.854Z,7.40
2018-09-03T14:46:57.415Z,7.70
2018-09-03T14:49:25.040Z,7.67
2018-09-03T14:51:52.638Z,6.90
2018-09-03T14:54:20.220Z,6.57
2018-09-03T14:56:47.845Z,7.90
2018-09-03T14:59:15.437Z,7.93
2018-09-03T15:01:43.069Z,6.73
2018-09-03T15:04:10.754Z,7.47
2018-09-03T15:06:38.370Z,8.50
2018-09-03T15:09:06.973Z,7.40
2018-09-03T15:11:34.550Z,7.70
2018-09-03T15:14:02.154Z,7.20
2018-09-03T15:16:33.092Z,6.73
2018-09-03T15:19:02.594Z,7.17
2018-09-03T15:21:30.172Z,7.80
2018-09-03T15:23:57.796Z,7.70
2018-09-03T15:26:25.476Z,7.33
2018-09-03T15:28:53.412Z,6.80
2018-09-03T15:31:21.025Z,7.23
2018-09-03T15:33:48.632Z,6.90
2018-09-03T15:36:16.351Z,6.97
2018-09-03T15:38:44.006Z,8.40
2018-09-03T15:41:11.672Z,7.10
2018-09-03T15:43:39.284Z,7.47
2018-09-03T15:46:07.751Z,8.30
2018-09-03T15:48:35.405Z,6.93
2018-09-03T15:51:03.119Z,7.90
2018-09-03T15:53:30.913Z,8.07
2018-09-03T15:56:00.344Z,7.60
2018-09-03T15:58:27.972Z,8.90
2018-09-03T16:00:55.573Z,8.27
2018-09-03T16:03:23.175Z,7.57
2018-09-03T16:05:50.752Z,7.90
2018-09-03T16:08:18.361Z,8.90
2018-09-03T16:10:45.952Z,8.13
2018-09-03T16:13:13.581Z,7.60
2018-09-03T16:15:41.159Z,8.20
2018-09-03T16:18:08.907Z,6.70
2018-09-03T16:20:36.599Z,7.20
2018-09-03T16:23:04.181Z,8.67
2018-09-03T16:25:31.820Z,8.30
2018-09-03T16:27:59.439Z,9.40
2018-09-03T16:30:27.055Z,9.27
2018-09-03T16:32:54.692Z,8.97
2018-09-03T16:35:22.298Z,10.17
2018-09-03T16:37:49.966Z,9.50
2018-09-03T16:40:17.580Z,9.80
2018-09-03T16:42:45.208Z,9.80
2018-09-03T16:45:12.797Z,10.37
2018-09-03T16:47:40.390Z,9.80
2018-09-03T16:50:08.027Z,10.13
2018-09-03T16:52:35.670Z,10.30
2018-09-03T16:55:03.388Z,10.97
2018-09-03T16:57:30.974Z,11.57
2018-09-03T16:59:58.623Z,10.10
2018-09-03T17:02:26.208Z,10.00
2018-09-03T17:04:53.797Z,11.50
2018-09-03T17:07:21.502Z,11.00
2018-09-03T17:09:49.141Z,10.47
2018-09-03T17:12:16.756Z,10.40
2018-09-03T17:14:44.347Z,10.00
2018-09-03T17:17:11.947Z,9.93
2018-09-03T17:19:39.563Z,9.10
2018-09-03T17:22:07.175Z,10.13
2018-09-03T17:24:34.890Z,9.50
2018-09-03T17:27:02.473Z,9.57
2018-09-03T17:29:30.112Z,10.40
2018-09-03T17:31:57.687Z,9.03
2018-09-03T17:34:25.304Z,10.00
2018-09-03T17:36:52.898Z,10.63
2018-09-03T17:39:20.492Z,9.70
2018-09-03T17:41:48.111Z,9.73
2018-09-03T17:44:15.718Z,10.33
2018-09-03T17:46:43.312Z,9.57
2018-09-03T17:49:10.888Z,10.27
2018-09-03T17:51:38.504Z,10.13
2018-09-03T17:54:06.202Z,10.70
2018-09-03T17:56:33.764Z,9.67
2018-09-03T17:59:01.444Z,8.73
2018-09-03T18:01:29.028Z,9.73
2018-09-03T18:03:56.685Z,9.20
2018-09-03T18:06:24.273Z,9.43
2018-09-03T18:08:51.892Z,9.50
2018-09-03T18:11:19.517Z,8.67
2018-09-03T18:13:47.140Z,9.00
2018-09-03T18:16:14.764Z,8.50
2018-09-03T18:18:42.364Z,9.33
2018-09-03T18:21:10.014Z,9.40
2018-09-03T18:23:37.674Z,9.70
2018-09-03T18:26:05.325Z,8.23
2018-09-03T18:28:32.904Z,10.10
2018-09-03T18:31:00.557Z,10.10
2018-09-03T18:33:28.166Z,10.43
2018-09-03T18:35:55.814Z,9.57
2018-09-03T18:38:23.449Z,10.07
2018-09-03T18:40:51.157Z,9.50
2018-09-03T18:43:18.753Z,10.40
2018-09-03T18:45:46.333Z,9.37
2018-09-03T18:48:13.967Z,9.20
2018-09-03T18:50:41.682Z,9.20
2018-09-03T18:53:09.540Z,9.20
2018-09-03T18:55:37.525Z,9.47
2018-09-03T18:58:05.436Z,8.90
2018-09-03T19:00:33.316Z,10.00
2018-09-03T19:03:00.974Z,10.83
2018-09-03T19:05:28.872Z,10.30
2018-09-03T19:07:56.901Z,8.93
2018-09-03T19:10:24.568Z,10.07
2018-09-03T19:12:52.442Z,9.10
2018-09-03T19:15:20.237Z,9.40
2018-09-03T19:17:48.054Z,10.73
2018-09-03T19:20:16.046Z,9.77
2018-09-03T19:22:43.675Z,10.73
2018-09-03T19:25:11.312Z,10.87
2018-09-03T19:27:39.313Z,10.37
2018-09-03T19:30:07.370Z,11.50
2018-09-03T19:32:35.023Z,10.50
2018-09-03T19:35:02.645Z,10.93
2018-09-03T19:37:30.361Z,10.40
2018-09-03T19:39:59.692Z,10.70
2018-09-03T19:42:27.301Z,10.43
2018-09-03T19:44:54.924Z,10.20
2018-09-03T19:47:22.529Z,10.50
2018-09-03T19:49:50.157Z,10.50
2018-09-03T19:52:17.797Z,11.50
2018-09-03T19:54:45.419Z,12.27
2018-09-03T19:57:13.053Z,10.93
2018-09-03T19:59:40.758Z,11.50
2018-09-03T20:02:08.374Z,10.57
2018-09-03T20:04:35.977Z,11.50
2018-09-03T20:07:03.592Z,11.47
2018-09-03T20:09:31.256Z,11.80
2018-09-03T20:11:58.974Z,11.43
2018-09-03T20:14:26.770Z,10.90
2018-09-03T20:16:54.594Z,9.53
2018-09-03T20:19:22.322Z,11.87
2018-09-03T20:21:50.262Z,11.30
2018-09-03T20:24:18.473Z,11.70
2018-09-03T20:26:46.255Z,11.43
2018-09-03T20:29:13.959Z,11.53
2018-09-03T20:31:41.778Z,11.70
2018-09-03T20:34:09.488Z,10.90
2018-09-03T20:36:38.563Z,11.73
2018-09-03T20:39:07.843Z,11.27
2018-09-03T20:41:36.338Z,12.20
2018-09-03T20:44:05.886Z,11.77
2018-09-03T20:46:33.736Z,11.77
2018-09-03T20:49:02.874Z,11.40
2018-09-03T20:51:32.138Z,11.60
2018-09-03T20:54:00.747Z,11.00
2018-09-03T20:56:29.794Z,12.60
2018-09-03T20:58:58.619Z,11.27
2018-09-03T21:01:27.505Z,11.07
2018-09-03T21:03:56.390Z,11.80
2018-09-03T21:06:24.495Z,11.47
2018-09-03T21:08:52.613Z,11.10
2018-09-03T21:11:20.265Z,12.30
2018-09-03T21:13:47.925Z,11.60
2018-09-03T21:16:15.587Z,11.90
2018-09-03T21:18:43.272Z,11.70
2018-09-03T21:21:11.026Z,12.17
2018-09-03T21:23:38.722Z,12.70
2018-09-03T21:26:06.479Z,12.57
2018-09-03T21:28:34.255Z,10.57
2018-09-03T21:31:01.921Z,12.60
2018-09-03T21:33:29.585Z,12.67
2018-09-03T21:35:57.215Z,12.53
2018-09-03T21:38:24.994Z,12.00
2018-09-03T21:40:52.676Z,12.37
2018-09-03T21:43:20.298Z,11.47
2018-09-03T21:45:48.030Z,12.70
2018-09-03T21:48:15.675Z,11.37
2018-09-03T21:50:43.343Z,11.83
2018-09-03T21:53:10.969Z,11.90
2018-09-03T21:55:38.636Z,12.20
2018-09-03T21:58:06.396Z,11.80
2018-09-03T22:00:34.292Z,12.33
2018-09-03T22:03:02.028Z,13.70
2018-09-03T22:05:29.734Z,12.13
2018-09-03T22:07:57.404Z,12.10
2018-09-03T22:10:25.059Z,12.00
2018-09-03T22:12:52.669Z,11.70
2018-09-03T22:15:20.244Z,13.53
2018-09-03T22:17:47.829Z,13.40
2018-09-03T22:20:15.432Z,12.83
2018-09-03T22:22:43.078Z,12.93
2018-09-03T22:25:10.763Z,12.23
2018-09-03T22:27:38.442Z,12.77
2018-09-03T22:30:06.255Z,11.47
2018-09-03T22:32:33.887Z,11.50
2018-09-03T22:35:01.511Z,10.77
2018-09-03T22:37:29.137Z,11.20
2018-09-03T22:39:56.742Z,11.93
2018-09-03T22:42:27.040Z,11.70
2018-09-03T22:44:55.337Z,11.83
2018-09-03T22:47:22.959Z,12.27
2018-09-03T22:49:50.683Z,12.30
2018-09-03T22:52:18.279Z,11.37
2018-09-03T22:54:45.878Z,11.67
2018-09-03T22:57:13.487Z,12.27
2018-09-03T22:59:41.098Z,11.00
2018-09-03T23:02:08.692Z,12.57
2018-09-03T23:04:36.300Z,12.00
2018-09-03T23:07:03.926Z,11.40
2018-09-03T23:09:31.537Z,11.90
2018-09-03T23:11:59.163Z,11.27
2018-09-03T23:14:26.794Z,11.33
2018-09-03T23:16:54.393Z,10.33
2018-09-03T23:19:22.008Z,11.00
2018-09-03T23:21:49.602Z,12.33
2018-09-03T23:24:17.280Z,10.53
2018-09-03T23:26:44.897Z,10.33
2018-09-03T23:29:12.493Z,11.40
2018-09-03T23:31:40.371Z,10.67
2018-09-03T23:34:07.984Z,10.97
2018-09-03T23:36:35.664Z,11.37
2018-09-03T23:39:03.725Z,11.73
2018-09-03T23:41:31.341Z,13.37
2018-09-03T23:43:58.961Z,11.20
2018-09-03T23:46:26.550Z,10.73
2018-09-03T23:48:54.144Z,11.10
2018-09-03T23:51:21.752Z,11.20
2018-09-03T23:53:49.354Z,12.90
2018-09-03T23:56:16.993Z,10.93
2018-09-03T23:58:44.595Z,11.60
